createdAt,value
2016-05-18T14:53:01.974Z,18.56
2016-05-18T14:54:01.616Z,18.57
2016-05-18T14:55:06.198Z,18.56
2016-05-18T14:56:00.888Z,18.61
2016-05-18T14:57:01.329Z,18.6
2016-05-18T14:58:00.956Z,18.54
2016-05-18T14:59:01.130Z,18.57
2016-05-18T15:00:05.882Z,18.66
2016-05-18T15:01:01.089Z,18.65
2016-05-18T15:02:01.278Z,18.72
2016-05-18T15:03:01.265Z,18.74
2016-05-18T15:04:01.066Z,18.79
2016-05-18T15:05:01.068Z,18.81
2016-05-18T15:06:01.259Z,18.9
2016-05-18T15:07:00.526Z,18.9
2016-05-18T15:08:00.889Z,18.93
2016-05-18T15:09:01.063Z,18.96
2016-05-18T15:10:06.473Z,19.07
2016-05-18T15:11:01.225Z,19.09
2016-05-18T15:12:00.806Z,19.12
2016-05-18T15:13:00.653Z,19.17
2016-05-18T15:14:01.030Z,19.24
2016-05-18T15:15:06.126Z,19.27
2016-05-18T15:16:00.988Z,19.38
2016-05-18T15:17:00.851Z,19.4
2016-05-18T15:18:00.994Z,19.45
2016-05-18T15:19:01.028Z,19.61
2016-05-18T15:20:06.593Z,19.52
2016-05-18T15:21:00.986Z,19.56
2016-05-18T15:22:00.833Z,19.64
2016-05-18T15:23:01.116Z,19.74
2016-05-18T15:24:00.963Z,19.78
2016-05-18T15:25:06.138Z,19.7
2016-05-18T15:26:00.969Z,19.86
2016-05-18T15:27:00.565Z,19.97
2016-05-18T15:28:00.958Z,19.92
2016-05-18T15:29:00.586Z,19.95
2016-05-18T15:30:03.151Z,20.1
2016-05-18T15:31:00.951Z,20.08
2016-05-18T15:32:00.547Z,20.11
2016-05-18T15:33:00.940Z,20.19
2016-05-18T15:34:00.740Z,20.19
2016-05-18T15:35:04.946Z,20.27
2016-05-18T15:36:00.573Z,20.3
2016-05-18T15:37:00.936Z,20.27
2016-05-18T15:38:00.734Z,20.29
2016-05-18T15:39:00.895Z,20.29
2016-05-18T15:40:06.287Z,20.32
2016-05-18T15:41:01.134Z,20.42
2016-05-18T15:42:00.714Z,20.41
2016-05-18T15:43:00.920Z,20.54
2016-05-18T15:44:00.923Z,20.53
2016-05-18T15:45:05.098Z,20.56
2016-05-18T15:46:00.960Z,20.64
2016-05-18T15:47:00.713Z,20.68
2016-05-18T15:48:00.699Z,20.66
2016-05-18T15:49:01.124Z,20.61
2016-05-18T15:50:01.111Z,20.68
2016-05-18T15:51:01.114Z,20.78
2016-05-18T15:52:01.132Z,20.79
2016-05-18T15:53:01.119Z,20.81
2016-05-18T15:54:00.544Z,20.82
2016-05-18T15:55:06.030Z,20.78
2016-05-18T15:56:00.909Z,20.86
2016-05-18T15:57:00.552Z,20.94
2016-05-18T15:58:01.102Z,20.94
2016-05-18T15:59:00.698Z,20.93
2016-05-18T16:00:05.607Z,21.01
2016-05-18T16:01:01.093Z,21.01
2016-05-18T16:02:00.691Z,21.03
2016-05-18T16:03:06.568Z,21.06
2016-05-18T16:04:00.899Z,21.23
2016-05-18T16:05:05.651Z,21.16
2016-05-18T16:06:00.685Z,21.25
2016-05-18T16:07:00.892Z,21.31
2016-05-18T16:08:01.159Z,21.3
2016-05-18T16:09:01.553Z,21.36
2016-05-18T16:10:04.915Z,21.36
2016-05-18T16:11:00.731Z,21.38
2016-05-18T16:12:01.092Z,21.4
2016-05-18T16:13:00.892Z,21.45
2016-05-18T16:14:00.520Z,21.49
2016-05-18T16:15:03.459Z,21.52
2016-05-18T16:16:00.884Z,21.55
2016-05-18T16:17:00.481Z,21.61
2016-05-18T16:18:00.874Z,21.66
2016-05-18T16:19:00.689Z,21.62
2016-05-18T16:20:00.880Z,21.64
2016-05-18T16:21:00.695Z,21.71
2016-05-18T16:22:00.682Z,21.68
2016-05-18T16:23:00.903Z,21.68
2016-05-18T16:24:00.890Z,21.71
2016-05-18T16:25:06.706Z,21.77
2016-05-18T16:26:00.677Z,21.73
2016-05-18T16:27:00.726Z,21.58
2016-05-18T16:28:01.088Z,21.64
2016-05-18T16:29:00.685Z,21.56
2016-05-18T16:30:05.907Z,21.55
2016-05-18T16:31:00.878Z,21.55
2016-05-18T16:32:00.881Z,21.56
2016-05-18T16:33:00.680Z,21.53
2016-05-18T16:34:00.683Z,21.49
2016-05-18T16:35:00.873Z,21.59
2016-05-18T16:36:00.876Z,21.68
2016-05-18T16:37:00.691Z,21.61
2016-05-18T16:38:00.881Z,21.62
2016-05-18T16:39:00.681Z,21.71
2016-05-18T16:40:04.215Z,21.71
2016-05-18T16:41:00.515Z,21.71
2016-05-18T16:42:00.736Z,21.78
2016-05-18T16:43:00.692Z,21.82
2016-05-18T16:44:01.085Z,21.73
2016-05-18T16:45:03.666Z,21.8
2016-05-18T16:46:00.886Z,21.7
2016-05-18T16:47:00.874Z,21.78
2016-05-18T16:48:00.752Z,21.78
2016-05-18T16:49:00.661Z,21.83
2016-05-18T16:50:05.085Z,21.9
2016-05-18T16:51:00.666Z,21.9
2016-05-18T16:52:00.872Z,21.85
2016-05-18T16:53:00.625Z,21.86
2016-05-18T16:54:01.080Z,21.85
2016-05-18T16:55:00.880Z,21.83
2016-05-18T16:56:00.664Z,21.86
2016-05-18T16:57:00.870Z,21.83
2016-05-18T16:58:00.872Z,21.92
2016-05-18T16:59:00.719Z,21.83
